Time;durP1;ratioP1;P1;durP2;ratioP2;P2;SDS_P1;SDS_P2;PMS_P1;PMS_P2;Temp;Humidity;BMP_temperature;BMP_pressure;BME280_temperature;BME280_humidity;BME280_pressure;Samples;Min_cycle;Max_cycle;Signal;HPM_P1;HPM_P2
2024/04/04 00:01:39;;;;;;;2.67;1.73;;;12.90;99.90;;;;;;5046120;28;20044;-79
2024/04/04 00:04:27;;;;;;;3.33;2.25;;;12.90;99.90;;;;;;5052563;28;20132;-79
2024/04/04 00:07:13;;;;;;;3.33;2.08;;;12.90;99.90;;;;;;5052949;28;20382;-79
2024/04/04 00:10:00;;;;;;;2.95;1.92;;;12.90;99.90;;;;;;5027245;28;20479;-78
2024/04/04 00:12:46;;;;;;;2.47;1.80;;;12.90;99.90;;;;;;5041381;28;20040;-78
2024/04/04 00:15:38;;;;;;;3.13;2.00;;;12.90;99.90;;;;;;5051283;28;20052;-78
2024/04/04 00:18:24;;;;;;;2.45;1.60;;;12.90;99.90;;;;;;5043771;28;20501;-79
2024/04/04 00:21:10;;;;;;;3.75;1.80;;;12.90;99.90;;;;;;5045413;28;20044;-78
2024/04/04 00:23:59;;;;;;;4.18;2.08;;;12.90;99.90;;;;;;5051446;28;20037;-78
2024/04/04 00:26:45;;;;;;;2.90;1.60;;;12.90;99.90;;;;;;5036181;28;20049;-77
2024/04/04 00:29:31;;;;;;;2.63;1.40;;;12.80;99.90;;;;;;5043433;28;20405;-77
2024/04/04 00:32:17;;;;;;;3.20;1.90;;;12.80;99.90;;;;;;5047342;28;20028;-78
2024/04/04 00:35:03;;;;;;;2.75;2.00;;;12.80;99.90;;;;;;5049838;28;20440;-78
2024/04/04 00:37:50;;;;;;;2.55;1.67;;;12.80;99.90;;;;;;5051202;28;20037;-78
2024/04/04 00:40:39;;;;;;;2.53;1.60;;;12.80;99.90;;;;;;5050577;28;20135;-77
2024/04/04 00:43:25;;;;;;;2.60;1.80;;;12.80;99.90;;;;;;5046915;28;20037;-77
2024/04/04 00:46:11;;;;;;;2.22;1.50;;;12.80;99.90;;;;;;5038947;28;20056;-76
2024/04/04 00:49:00;;;;;;;3.88;1.85;;;12.80;99.90;;;;;;5046627;28;20106;-76
2024/04/04 00:51:47;;;;;;;2.58;1.80;;;12.80;99.90;;;;;;5049737;28;20036;-76
2024/04/04 00:54:43;;;;;;;3.03;1.73;;;12.80;99.90;;;;;;5048294;28;20044;-76
2024/04/04 00:57:29;;;;;;;2.90;1.30;;;12.80;99.90;;;;;;5048590;28;20037;-79
2024/04/04 01:00:15;;;;;;;3.03;1.95;;;12.80;99.90;;;;;;5052262;28;20064;-76
2024/04/04 01:03:01;;;;;;;3.63;1.48;;;12.80;99.90;;;;;;5035272;28;20489;-80
2024/04/04 01:05:47;;;;;;;1.95;1.52;;;12.90;99.90;;;;;;5049407;28;20575;-80
2024/04/04 01:08:36;;;;;;;3.28;1.40;;;12.90;99.90;;;;;;5037323;28;20117;-80
2024/04/04 01:11:22;;;;;;;3.08;1.55;;;12.90;99.90;;;;;;5050473;28;20497;-81
2024/04/04 01:14:09;;;;;;;2.78;1.50;;;12.90;99.90;;;;;;5049659;28;20127;-81
2024/04/04 01:16:55;;;;;;;2.78;1.50;;;12.90;99.90;;;;;;5052753;28;20103;-80
2024/04/04 01:19:40;;;;;;;3.33;1.80;;;12.90;99.90;;;;;;5036167;28;20048;-79
2024/04/04 01:22:26;;;;;;;1.90;1.38;;;12.90;99.90;;;;;;5049222;28;20068;-80
2024/04/04 01:25:12;;;;;;;2.13;1.50;;;12.90;99.90;;;;;;5048934;28;20045;-80
2024/04/04 01:27:58;;;;;;;2.88;1.75;;;12.90;99.90;;;;;;5034159;28;20037;-80
2024/04/04 01:30:44;;;;;;;2.35;1.88;;;12.90;99.90;;;;;;5046592;28;20080;-80
2024/04/04 01:33:30;;;;;;;5.32;2.15;;;12.90;99.90;;;;;;5050610;28;20044;-80
2024/04/04 01:36:16;;;;;;;2.17;1.50;;;12.90;99.90;;;;;;5044152;28;20128;-77
2024/04/04 01:39:03;;;;;;;3.95;1.83;;;12.80;99.90;;;;;;5046871;28;20108;-75
2024/04/04 01:41:49;;;;;;;2.83;1.60;;;12.80;99.90;;;;;;5049856;28;20037;-79
2024/04/04 01:44:35;;;;;;;2.22;1.80;;;12.80;99.90;;;;;;5042591;28;20049;-78
2024/04/04 01:47:21;;;;;;;2.55;1.70;;;12.80;99.90;;;;;;5048314;28;20060;-77
2024/04/04 01:50:07;;;;;;;2.95;1.75;;;12.80;99.90;;;;;;5048952;28;20052;-78
2024/04/04 01:52:53;;;;;;;3.33;1.90;;;12.80;99.90;;;;;;5046169;28;20123;-78
2024/04/04 01:55:39;;;;;;;2.45;1.77;;;12.80;99.90;;;;;;5034263;28;20064;-78
2024/04/04 01:58:25;;;;;;;1.58;1.33;;;12.80;99.90;;;;;;5041138;28;20047;-79
2024/04/04 02:01:11;;;;;;;3.47;2.53;;;12.80;99.90;;;;;;5036294;28;20159;-78
2024/04/04 02:03:57;;;;;;;3.28;1.70;;;12.80;99.90;;;;;;5050248;28;20044;-79
2024/04/04 02:06:43;;;;;;;2.72;1.58;;;12.80;99.90;;;;;;5051375;28;20069;-77
2024/04/04 02:09:29;;;;;;;2.88;2.03;;;12.80;99.90;;;;;;5044135;28;20045;-82
2024/04/04 02:12:15;;;;;;;2.92;1.58;;;12.80;99.90;;;;;;5045234;28;20073;-80
2024/04/04 02:15:02;;;;;;;2.08;1.50;;;12.80;99.90;;;;;;5044277;28;20099;-81
2024/04/04 02:17:48;;;;;;;2.40;1.55;;;12.80;99.90;;;;;;5038127;28;20046;-81
2024/04/04 02:20:34;;;;;;;2.58;1.67;;;12.90;99.90;;;;;;5048018;28;20043;-81
2024/04/04 02:23:20;;;;;;;2.83;1.50;;;12.90;99.90;;;;;;5032499;28;20069;-81
2024/04/04 02:26:06;;;;;;;2.33;1.48;;;12.90;99.90;;;;;;5040986;28;20055;-82
2024/04/04 02:28:51;;;;;;;2.17;1.65;;;12.90;99.90;;;;;;5041781;28;20041;-82
2024/04/04 02:31:37;;;;;;;2.55;1.50;;;12.90;99.90;;;;;;5048093;28;20044;-80
2024/04/04 02:34:23;;;;;;;2.50;1.77;;;12.90;99.90;;;;;;5040841;28;20047;-81
2024/04/04 02:37:11;;;;;;;4.00;1.85;;;12.90;99.90;;;;;;5050101;28;20040;-65
2024/04/04 02:39:57;;;;;;;2.05;1.58;;;12.90;99.90;;;;;;5044900;28;20045;-64
2024/04/04 02:42:43;;;;;;;1.98;1.58;;;12.90;99.90;;;;;;5047839;28;20037;-65
2024/04/04 02:45:29;;;;;;;2.55;1.70;;;12.90;99.90;;;;;;5048694;28;20059;-65
2024/04/04 02:48:15;;;;;;;2.63;1.80;;;12.90;99.90;;;;;;5043314;28;20096;-65
2024/04/04 02:51:02;;;;;;;3.33;1.92;;;12.90;99.90;;;;;;5032575;28;20127;-64
2024/04/04 02:53:48;;;;;;;2.65;1.75;;;12.90;99.90;;;;;;5049903;28;20037;-64
2024/04/04 02:56:34;;;;;;;2.72;1.98;;;12.90;99.90;;;;;;5047722;28;20124;-64
2024/04/04 02:59:20;;;;;;;3.03;2.20;;;13.00;99.90;;;;;;5048655;28;20052;-64
2024/04/04 03:02:06;;;;;;;2.78;2.17;;;13.00;99.90;;;;;;5040219;28;20538;-64
2024/04/04 03:04:52;;;;;;;2.85;2.00;;;13.00;99.90;;;;;;5043433;28;20111;-64
2024/04/04 03:07:38;;;;;;;3.38;2.10;;;12.90;99.90;;;;;;5034726;28;20764;-65
2024/04/04 03:10:24;;;;;;;2.22;1.98;;;12.90;99.90;;;;;;5044545;28;20114;-64
2024/04/04 03:13:10;;;;;;;2.50;2.00;;;12.90;99.90;;;;;;5049813;28;20148;-64
2024/04/04 03:15:57;;;;;;;4.07;2.20;;;12.90;99.90;;;;;;5039227;28;20048;-64
2024/04/04 03:18:43;;;;;;;2.50;1.90;;;12.90;99.90;;;;;;5031456;28;20073;-64
2024/04/04 03:21:29;;;;;;;2.42;2.10;;;12.90;99.90;;;;;;5049626;28;20068;-64
2024/04/04 03:24:14;;;;;;;2.78;2.00;;;12.90;99.90;;;;;;5045034;28;20047;-64
2024/04/04 03:27:00;;;;;;;3.78;1.98;;;12.90;99.90;;;;;;5039923;28;20408;-65
2024/04/04 03:29:46;;;;;;;4.78;2.17;;;12.80;99.90;;;;;;5035382;28;20090;-65
2024/04/04 03:32:32;;;;;;;3.55;2.13;;;12.80;99.90;;;;;;5048558;28;20120;-64
2024/04/04 03:35:18;;;;;;;3.42;2.25;;;12.70;99.90;;;;;;5050738;28;20041;-64
2024/04/04 03:38:04;;;;;;;2.75;1.98;;;12.80;99.90;;;;;;5040258;28;20579;-65
2024/04/04 03:40:54;;;;;;;2.67;2.13;;;12.70;99.90;;;;;;5046984;28;20053;-64
2024/04/04 03:43:41;;;;;;;2.92;2.03;;;12.70;99.90;;;;;;5045320;28;20504;-64
2024/04/04 03:46:27;;;;;;;4.13;2.50;;;12.70;99.90;;;;;;5033915;28;20053;-64
2024/04/04 03:49:13;;;;;;;2.47;2.03;;;12.70;99.90;;;;;;5033359;28;20059;-64
2024/04/04 03:51:59;;;;;;;5.25;2.63;;;12.70;99.90;;;;;;5045818;28;20135;-64
2024/04/04 03:54:45;;;;;;;2.63;1.98;;;12.60;99.90;;;;;;5045949;28;20041;-64
2024/04/04 03:57:30;;;;;;;4.30;2.50;;;12.60;99.90;;;;;;5040322;28;20087;-64
2024/04/04 04:00:17;;;;;;;3.10;2.28;;;12.60;99.90;;;;;;5037603;28;20044;-66
2024/04/04 04:03:03;;;;;;;3.20;2.35;;;12.50;99.90;;;;;;5049543;28;20041;-66
2024/04/04 04:05:49;;;;;;;3.28;2.47;;;12.50;99.90;;;;;;5051305;28;20079;-66
2024/04/04 04:08:34;;;;;;;3.78;2.58;;;12.50;99.90;;;;;;5032328;28;20442;-64
2024/04/04 04:11:20;;;;;;;3.15;2.17;;;12.40;99.90;;;;;;5049038;28;20041;-64
2024/04/04 04:14:06;;;;;;;3.65;2.60;;;12.40;99.90;;;;;;5052949;28;20037;-64
2024/04/04 04:16:52;;;;;;;3.92;2.17;;;12.40;99.90;;;;;;5039361;28;20490;-65
2024/04/04 04:19:38;;;;;;;3.03;2.42;;;12.30;99.90;;;;;;5035833;28;20087;-65
2024/04/04 04:22:24;;;;;;;2.88;2.35;;;12.20;99.90;;;;;;5051178;28;20400;-65
2024/04/04 04:25:10;;;;;;;3.63;2.03;;;12.30;99.90;;;;;;5052774;28;20075;-65
2024/04/04 04:27:56;;;;;;;4.03;2.72;;;12.30;99.90;;;;;;5051961;28;20044;-65
2024/04/04 04:30:42;;;;;;;3.67;2.15;;;12.30;99.90;;;;;;5048974;28;20048;-65
2024/04/04 04:33:28;;;;;;;3.40;2.42;;;12.30;99.90;;;;;;5049294;28;20048;-65
2024/04/04 04:36:14;;;;;;;4.22;2.70;;;12.30;99.90;;;;;;5040068;28;20056;-65
2024/04/04 04:39:00;;;;;;;3.50;2.60;;;12.30;99.90;;;;;;5041576;28;20476;-65
2024/04/04 04:41:46;;;;;;;2.95;2.25;;;12.30;99.90;;;;;;5052461;28;20531;-65
2024/04/04 04:44:32;;;;;;;4.30;2.45;;;12.40;99.90;;;;;;5036632;28;20423;-64
2024/04/04 04:47:18;;;;;;;3.53;2.40;;;12.40;99.90;;;;;;5046192;28;20499;-65
2024/04/04 04:50:04;;;;;;;3.55;2.60;;;12.40;99.90;;;;;;5019962;28;20707;-65
2024/04/04 04:52:50;;;;;;;3.45;2.70;;;12.40;99.90;;;;;;5017665;28;20041;-64
2024/04/04 04:55:36;;;;;;;3.30;2.20;;;12.40;99.90;;;;;;5042035;28;20083;-65
2024/04/04 04:58:22;;;;;;;3.40;2.65;;;12.40;99.90;;;;;;5035752;28;20052;-64
2024/04/04 05:01:08;;;;;;;5.55;3.13;;;12.40;99.90;;;;;;5052072;28;20127;-64
2024/04/04 05:03:54;;;;;;;3.55;2.50;;;12.50;99.90;;;;;;5039375;28;20045;-65
2024/04/04 05:06:45;;;;;;;3.70;2.13;;;12.50;99.90;;;;;;5047351;28;20053;-65
2024/04/04 05:09:30;;;;;;;3.17;2.05;;;12.50;99.90;;;;;;5041333;28;20045;-64
2024/04/04 05:12:16;;;;;;;4.10;2.35;;;12.50;99.90;;;;;;5031379;28;20481;-64
2024/04/04 05:15:02;;;;;;;4.10;2.45;;;12.60;99.90;;;;;;5047434;28;20045;-64
2024/04/04 05:17:48;;;;;;;3.55;2.20;;;12.60;99.90;;;;;;5056943;28;20049;-64
2024/04/04 05:20:34;;;;;;;3.42;2.40;;;12.50;99.90;;;;;;5063881;28;20041;-64
2024/04/04 05:23:20;;;;;;;4.28;2.95;;;12.50;99.90;;;;;;5039966;28;20049;-65
2024/04/04 05:26:06;;;;;;;4.82;2.45;;;12.60;99.90;;;;;;5043719;28;20139;-65
2024/04/04 05:28:52;;;;;;;3.45;2.42;;;12.60;99.90;;;;;;5049175;28;20084;-65
2024/04/04 05:31:41;;;;;;;4.00;2.33;;;12.60;99.90;;;;;;5045139;28;20045;-65
2024/04/04 05:34:28;;;;;;;3.65;2.50;;;12.60;99.90;;;;;;5032668;28;20498;-65
2024/04/04 05:37:14;;;;;;;4.10;2.80;;;12.60;99.90;;;;;;5034973;28;20537;-65
2024/04/04 05:40:00;;;;;;;3.55;2.42;;;12.60;99.90;;;;;;5040020;28;20133;-65
2024/04/04 05:42:46;;;;;;;3.40;2.50;;;12.70;99.90;;;;;;5044435;28;20097;-65
2024/04/04 05:45:32;;;;;;;3.85;2.75;;;12.70;99.90;;;;;;5049897;28;20060;-65
2024/04/04 05:48:18;;;;;;;3.40;2.38;;;12.70;99.90;;;;;;5044258;28;20059;-65
2024/04/04 05:51:05;;;;;;;4.05;2.70;;;12.70;99.90;;;;;;5031815;28;20048;-65
2024/04/04 05:53:50;;;;;;;2.50;1.90;;;12.80;99.90;;;;;;5031930;28;20088;-64
2024/04/04 05:56:36;;;;;;;3.00;2.30;;;12.80;99.90;;;;;;5048825;28;20102;-65
2024/04/04 05:59:22;;;;;;;5.20;2.45;;;12.80;99.90;;;;;;5036984;28;20055;-65
2024/04/04 06:02:09;;;;;;;4.50;2.60;;;12.90;99.90;;;;;;5041491;28;20500;-66
2024/04/04 06:04:55;;;;;;;7.13;2.72;;;12.90;99.90;;;;;;5050898;28;20132;-65
2024/04/04 06:07:41;;;;;;;3.00;2.25;;;13.00;99.90;;;;;;5050539;28;20044;-65
2024/04/04 06:10:27;;;;;;;4.28;2.53;;;13.10;99.90;;;;;;5045238;28;20048;-67
2024/04/04 06:13:13;;;;;;;4.40;2.38;;;13.10;99.90;;;;;;5050754;28;20037;-71
2024/04/04 06:16:02;;;;;;;3.22;2.28;;;13.20;99.90;;;;;;5032649;28;20041;-66
2024/04/04 06:18:47;;;;;;;3.92;2.40;;;13.30;99.90;;;;;;5034928;28;20107;-69
2024/04/04 06:21:33;;;;;;;4.28;2.10;;;13.40;99.90;;;;;;5041352;28;20045;-67
2024/04/04 06:24:19;;;;;;;3.72;2.20;;;13.40;99.90;;;;;;5043800;28;20067;-64
2024/04/04 06:27:05;;;;;;;3.45;2.20;;;13.50;99.90;;;;;;5049393;28;20053;-63
2024/04/04 06:29:51;;;;;;;3.50;2.20;;;13.50;99.90;;;;;;5042794;28;20041;-64
2024/04/04 06:32:37;;;;;;;2.95;2.08;;;13.50;99.90;;;;;;5046856;28;20080;-64
2024/04/04 06:35:23;;;;;;;4.00;2.28;;;13.60;99.90;;;;;;5038897;28;20102;-64
2024/04/04 06:38:09;;;;;;;5.05;2.20;;;13.60;99.90;;;;;;5049012;28;20052;-62
2024/04/04 06:40:55;;;;;;;5.25;1.95;;;13.50;99.90;;;;;;5050897;28;20045;-63
2024/04/04 06:43:41;;;;;;;3.90;1.90;;;13.60;99.90;;;;;;5045606;28;20041;-63
2024/04/04 06:46:26;;;;;;;3.83;1.77;;;13.60;99.90;;;;;;5048262;28;20175;-63
2024/04/04 06:49:13;;;;;;;2.95;1.75;;;13.60;99.90;;;;;;5045470;28;20127;-63
2024/04/04 06:51:59;;;;;;;3.25;1.95;;;13.50;99.90;;;;;;5035908;28;20048;-63
2024/04/04 06:54:45;;;;;;;4.65;3.47;;;13.60;99.90;;;;;;5042456;28;20076;-64
2024/04/04 06:57:31;;;;;;;3.20;2.55;;;13.60;99.90;;;;;;5041127;28;20037;-65
2024/04/04 07:00:17;;;;;;;6.45;3.30;;;13.60;99.90;;;;;;5036033;28;20548;-64
2024/04/04 07:03:03;;;;;;;4.57;2.67;;;13.60;99.90;;;;;;5038044;28;20745;-66
2024/04/04 07:05:49;;;;;;;4.95;2.70;;;13.60;99.90;;;;;;5032865;28;20103;-66
2024/04/04 07:08:35;;;;;;;7.00;3.10;;;13.70;99.90;;;;;;5049675;28;20098;-66
2024/04/04 07:11:21;;;;;;;2.80;2.17;;;13.70;99.90;;;;;;5049175;28;20056;-66
2024/04/04 07:14:07;;;;;;;2.67;1.95;;;13.70;99.90;;;;;;5045931;28;20044;-66
2024/04/04 07:16:53;;;;;;;4.20;2.10;;;13.80;99.90;;;;;;5046538;28;20047;-66
2024/04/04 07:19:39;;;;;;;5.07;2.00;;;13.80;99.90;;;;;;5046642;28;20053;-65
2024/04/04 07:22:28;;;;;;;4.88;2.30;;;13.80;99.90;;;;;;5042933;28;20052;-65
2024/04/04 07:25:15;;;;;;;14.13;5.50;;;13.80;99.90;;;;;;5019568;28;20559;-64
2024/04/04 07:28:01;;;;;;;11.98;5.13;;;13.80;99.90;;;;;;5047931;28;20440;-65
2024/04/04 07:30:48;;;;;;;8.68;4.18;;;13.90;99.90;;;;;;5046904;28;20041;-65
2024/04/04 07:33:34;;;;;;;7.05;4.05;;;13.90;99.90;;;;;;5048665;28;20599;-65
2024/04/04 07:36:19;;;;;;;4.88;2.97;;;13.90;99.90;;;;;;5047113;28;20103;-65
2024/04/04 07:39:05;;;;;;;6.30;3.05;;;14.00;99.90;;;;;;5048616;28;20041;-65
2024/04/04 07:41:51;;;;;;;5.38;2.80;;;14.00;99.90;;;;;;5035868;28;20052;-65
2024/04/04 07:44:38;;;;;;;6.93;3.13;;;14.10;99.90;;;;;;5048700;28;20044;-65
2024/04/04 07:47:24;;;;;;;6.22;2.88;;;14.10;99.90;;;;;;5049461;28;20512;-65
2024/04/04 07:50:14;;;;;;;4.25;2.30;;;14.20;99.90;;;;;;5047918;28;20037;-65
2024/04/04 07:53:00;;;;;;;5.07;2.40;;;14.20;99.90;;;;;;5050091;28;20044;-65
2024/04/04 07:55:46;;;;;;;3.30;2.00;;;14.30;99.90;;;;;;5053120;28;20048;-65
2024/04/04 07:58:32;;;;;;;4.38;1.85;;;14.40;99.90;;;;;;5047710;28;20056;-74
2024/04/04 08:01:20;;;;;;;7.60;2.40;;;14.50;99.90;;;;;;5046694;28;20033;-74
2024/04/04 08:04:08;;;;;;;3.67;2.45;;;14.60;99.90;;;;;;5045133;28;20048;-74
2024/04/04 08:06:54;;;;;;;4.22;1.95;;;14.70;99.90;;;;;;5052395;28;20048;-76
2024/04/04 08:09:39;;;;;;;3.38;1.70;;;14.80;99.90;;;;;;5044969;28;20037;-71
2024/04/04 08:12:27;;;;;;;5.03;2.22;;;14.90;99.90;;;;;;5042160;28;20396;-75
2024/04/04 08:15:13;;;;;;;3.38;1.70;;;14.90;99.90;;;;;;5048869;28;20033;-78
2024/04/04 08:17:59;;;;;;;3.17;1.50;;;14.90;99.90;;;;;;5044764;28;20079;-75
2024/04/04 08:20:45;;;;;;;3.83;1.88;;;15.00;99.90;;;;;;5042976;28;20037;-75
2024/04/04 08:23:31;;;;;;;3.72;2.15;;;15.10;99.90;;;;;;5051614;28;20087;-73
2024/04/04 08:26:22;;;;;;;2.53;1.77;;;15.10;99.70;;;;;;5052179;28;20515;-73
2024/04/04 08:29:09;;;;;;;6.40;2.08;;;15.10;99.60;;;;;;5045696;28;20056;-73
2024/04/04 08:31:56;;;;;;;4.95;2.45;;;15.20;99.40;;;;;;5043947;28;20056;-74
2024/04/04 08:34:42;;;;;;;6.10;2.10;;;15.20;99.30;;;;;;5047494;28;20401;-73
2024/04/04 08:37:28;;;;;;;4.65;2.50;;;15.20;99.20;;;;;;5046487;28;20044;-73
2024/04/04 08:40:14;;;;;;;6.40;2.80;;;15.30;99.30;;;;;;5046957;28;20057;-75
2024/04/04 08:43:01;;;;;;;4.28;2.58;;;15.30;99.10;;;;;;5046897;28;20523;-73
2024/04/04 08:45:48;;;;;;;4.72;2.33;;;15.40;98.90;;;;;;5051627;28;20049;-74
2024/04/04 08:48:34;;;;;;;3.67;1.50;;;15.50;98.90;;;;;;5040628;28;20037;-74
2024/04/04 08:51:21;;;;;;;3.90;2.20;;;15.60;98.90;;;;;;5042576;28;20049;-73
2024/04/04 08:54:07;;;;;;;3.88;1.70;;;15.60;98.70;;;;;;5051987;28;20040;-74
2024/04/04 08:56:54;;;;;;;3.95;1.95;;;15.70;98.40;;;;;;5051722;28;20056;-75
2024/04/04 08:59:40;;;;;;;3.08;1.67;;;15.80;98.20;;;;;;5045114;28;20072;-74
2024/04/04 09:02:30;;;;;;;5.13;1.55;;;15.90;98.00;;;;;;5045820;28;20040;-74
2024/04/04 09:05:16;;;;;;;5.05;1.50;;;15.90;97.80;;;;;;5035820;28;20064;-76
2024/04/04 09:08:02;;;;;;;2.13;1.30;;;16.00;97.70;;;;;;5045558;28;20588;-74
2024/04/04 09:11:01;;;;;;;3.38;1.70;;;16.00;97.40;;;;;;5046011;28;20048;-74
2024/04/04 09:13:47;;;;;;;2.70;1.50;;;16.00;97.20;;;;;;5044273;28;20045;-73
2024/04/04 09:16:33;;;;;;;4.93;2.05;;;16.00;97.30;;;;;;5047484;28;20449;-72
2024/04/04 09:19:19;;;;;;;3.67;1.23;;;16.10;97.30;;;;;;5050039;28;20689;-73
2024/04/04 09:22:07;;;;;;;1.35;1.13;;;16.10;97.10;;;;;;5045876;28;20037;-73
2024/04/04 09:25:04;;;;;;;5.82;1.33;;;16.20;97.00;;;;;;5049283;28;20199;-73
2024/04/04 09:27:50;;;;;;;3.53;1.50;;;16.30;97.10;;;;;;5043565;28;20052;-74
2024/04/04 09:30:36;;;;;;;1.75;1.08;;;16.40;96.80;;;;;;5043389;28;20088;-73
2024/04/04 09:33:24;;;;;;;3.50;1.10;;;16.50;96.50;;;;;;5031979;28;20103;-72
2024/04/04 09:36:10;;;;;;;1.60;1.00;;;16.70;96.10;;;;;;5049344;28;20048;-72
2024/04/04 09:39:02;;;;;;;2.15;1.30;;;16.80;95.70;;;;;;5045037;28;20044;-72
2024/04/04 09:41:52;;;;;;;2.63;1.38;;;16.90;95.30;;;;;;5031322;28;20209;-75
2024/04/04 09:44:38;;;;;;;3.33;1.35;;;17.10;95.10;;;;;;5039938;28;20169;-73
2024/04/04 09:47:26;;;;;;;2.30;1.23;;;17.20;94.80;;;;;;5040988;28;20559;-73
2024/04/04 09:50:18;;;;;;;3.67;1.83;;;17.30;94.40;;;;;;5037252;28;20413;-72
2024/04/04 10:19:12;;;;;;;1.92;1.05;;;17.70;91.70;;;;;;5038175;28;1266030;-73
2024/04/04 10:21:59;;;;;;;3.25;1.17;;;17.60;91.60;;;;;;5084402;28;20395;-73
2024/04/04 10:24:45;;;;;;;2.97;1.40;;;17.60;91.60;;;;;;5086603;28;20028;-73
2024/04/04 10:27:31;;;;;;;5.15;1.13;;;17.60;91.60;;;;;;5075397;28;20070;-73
2024/04/04 10:30:19;;;;;;;4.75;1.70;;;17.50;91.50;;;;;;5069321;28;20043;-73
2024/04/04 10:33:14;;;;;;;2.35;1.13;;;17.50;91.50;;;;;;5066219;28;20119;-72
2024/04/04 10:36:01;;;;;;;2.60;0.93;;;17.60;91.60;;;;;;5078536;28;20025;-74
2024/04/04 10:38:47;;;;;;;2.10;1.05;;;17.60;91.60;;;;;;5075207;28;20028;-79
2024/04/04 10:41:33;;;;;;;3.13;1.60;;;17.70;91.60;;;;;;5054336;28;20612;-73
2024/04/04 10:44:20;;;;;;;3.13;1.67;;;17.70;91.50;;;;;;5081061;28;20068;-77
2024/04/04 10:47:07;;;;;;;9.05;2.35;;;17.80;91.50;;;;;;5054830;28;20116;-74
2024/04/04 10:49:53;;;;;;;2.45;1.00;;;17.80;91.70;;;;;;5080058;28;20399;-76
2024/04/04 10:52:39;;;;;;;5.38;1.27;;;17.70;92.00;;;;;;5073683;28;20082;-77
2024/04/04 10:55:26;;;;;;;3.67;1.30;;;17.60;92.30;;;;;;5080175;28;20117;-76
2024/04/04 10:58:15;;;;;;;2.67;1.30;;;17.60;92.80;;;;;;5068418;28;20036;-76
2024/04/04 11:01:01;;;;;;;4.22;2.08;;;17.50;93.10;;;;;;5083671;28;20140;-77
2024/04/04 11:03:51;;;;;;;2.33;1.42;;;17.40;93.40;;;;;;5076764;28;20035;-76
2024/04/04 11:06:39;;;;;;;2.83;1.30;;;17.30;93.60;;;;;;5078262;28;20545;-76
2024/04/04 11:09:26;;;;;;;2.97;1.20;;;17.10;93.90;;;;;;5052702;28;20086;-76
2024/04/04 11:12:14;;;;;;;2.50;1.13;;;17.10;94.30;;;;;;5058325;28;20025;-76
2024/04/04 11:15:00;;;;;;;2.90;1.10;;;16.90;94.60;;;;;;5058930;28;20060;-76
2024/04/04 11:17:46;;;;;;;3.03;1.40;;;16.80;94.90;;;;;;5070864;28;20052;-76
2024/04/04 11:20:33;;;;;;;2.78;1.45;;;16.70;95.00;;;;;;5063394;28;20476;-76
2024/04/04 11:23:19;;;;;;;3.08;1.48;;;16.60;95.30;;;;;;5050603;28;20036;-76
2024/04/04 11:26:06;;;;;;;4.07;1.60;;;16.50;95.50;;;;;;5051959;28;20545;-76
2024/04/04 11:28:52;;;;;;;3.58;1.80;;;16.40;95.70;;;;;;5065934;28;20029;-76
2024/04/04 11:31:38;;;;;;;3.22;1.30;;;16.40;95.90;;;;;;5057790;28;20036;-76
2024/04/04 11:34:24;;;;;;;3.50;1.20;;;16.20;96.10;;;;;;5071872;28;20040;-75
2024/04/04 11:37:10;;;;;;;5.35;1.92;;;16.10;96.40;;;;;;5051408;28;20045;-76
2024/04/04 11:39:56;;;;;;;4.15;1.85;;;16.00;96.60;;;;;;5066757;28;20099;-76
2024/04/04 11:42:42;;;;;;;2.33;1.50;;;15.90;96.80;;;;;;5063031;28;20097;-75
2024/04/04 11:45:27;;;;;;;4.80;1.63;;;15.80;97.10;;;;;;5058010;28;20037;-76
2024/04/04 11:48:13;;;;;;;3.25;1.33;;;15.80;97.40;;;;;;5065104;28;20040;-76
2024/04/04 11:50:59;;;;;;;2.22;1.60;;;15.80;97.70;;;;;;5068422;28;20081;-76
2024/04/04 11:53:45;;;;;;;3.17;1.40;;;15.80;98.00;;;;;;5065168;28;20496;-76
2024/04/04 11:56:31;;;;;;;2.00;1.40;;;15.80;98.10;;;;;;5055149;28;20029;-76
2024/04/04 11:59:17;;;;;;;3.70;1.60;;;15.90;98.30;;;;;;5066927;28;20124;-77
2024/04/04 12:02:03;;;;;;;3.63;1.50;;;15.90;98.40;;;;;;5063095;28;20370;-76
2024/04/04 12:04:49;;;;;;;3.13;1.45;;;16.00;98.60;;;;;;5067167;28;20086;-76
2024/04/04 12:07:35;;;;;;;3.42;1.63;;;16.10;98.60;;;;;;5052069;28;20025;-77
2024/04/04 12:10:21;;;;;;;4.53;2.05;;;16.20;98.60;;;;;;5070569;28;20021;-77
2024/04/04 12:13:07;;;;;;;5.88;1.73;;;16.30;98.70;;;;;;5059284;28;20028;-77
2024/04/04 12:15:54;;;;;;;3.78;1.40;;;16.20;98.70;;;;;;5054474;28;20068;-77
2024/04/04 12:21:53;;;;;;;3.95;1.65;;;16.20;98.80;;;;;;5054038;28;20032;-77
2024/04/04 12:24:40;;;;;;;2.08;1.33;;;16.10;98.90;;;;;;5066212;28;20036;-77
2024/04/04 12:27:26;;;;;;;4.38;2.10;;;16.10;99.00;;;;;;5070058;28;20036;-76
2024/04/04 12:30:12;;;;;;;3.30;1.60;;;16.10;99.20;;;;;;5062363;28;20476;-77
2024/04/04 12:32:58;;;;;;;5.10;2.00;;;16.00;99.40;;;;;;5069257;28;20035;-77
2024/04/04 12:35:44;;;;;;;1.63;1.30;;;16.00;99.50;;;;;;5050649;28;20388;-77
2024/04/04 12:38:29;;;;;;;3.15;1.60;;;16.00;99.60;;;;;;5056965;28;20036;-77
2024/04/04 12:41:16;;;;;;;6.53;1.83;;;15.90;99.80;;;;;;5059746;28;20536;-77
2024/04/04 12:44:01;;;;;;;5.88;1.50;;;15.90;99.90;;;;;;5065680;28;20112;-77
2024/04/04 12:46:47;;;;;;;2.95;1.60;;;15.90;99.90;;;;;;5062036;28;20124;-77
2024/04/04 12:49:33;;;;;;;3.67;1.85;;;15.90;99.90;;;;;;5044263;28;20060;-77
2024/04/04 12:52:19;;;;;;;3.58;1.63;;;15.90;99.90;;;;;;5056924;28;20507;-76
2024/04/04 12:55:06;;;;;;;4.20;2.20;;;15.90;99.90;;;;;;5060959;28;20503;-77
2024/04/04 12:57:51;;;;;;;4.57;1.90;;;15.90;99.90;;;;;;5055676;28;20389;-77
2024/04/04 13:00:38;;;;;;;4.75;2.03;;;15.80;99.90;;;;;;5051746;28;20078;-71
2024/04/04 13:03:24;;;;;;;6.72;2.08;;;15.80;99.90;;;;;;5054949;28;20084;-75
2024/04/04 13:06:10;;;;;;;4.15;1.75;;;15.80;99.90;;;;;;5059230;28;20490;-79
2024/04/04 13:08:56;;;;;;;6.10;2.08;;;15.80;99.90;;;;;;5061691;28;20079;-78
2024/04/04 13:11:42;;;;;;;10.43;3.67;;;15.70;99.90;;;;;;5063817;28;20052;-79
2024/04/04 13:14:28;;;;;;;7.15;2.20;;;15.70;99.90;;;;;;5062317;28;20027;-78
2024/04/04 13:17:14;;;;;;;5.13;2.58;;;15.60;99.90;;;;;;5064156;28;20047;-79
2024/04/04 13:20:00;;;;;;;8.20;2.50;;;15.70;99.90;;;;;;5067799;28;20049;-79
2024/04/04 13:22:46;;;;;;;3.67;2.33;;;15.70;99.90;;;;;;5058233;28;20033;-79
2024/04/04 13:25:32;;;;;;;4.65;2.53;;;15.70;99.90;;;;;;5057975;28;20037;-79
2024/04/04 13:28:18;;;;;;;7.15;2.60;;;15.70;99.90;;;;;;5066790;28;20032;-79
2024/04/04 13:31:04;;;;;;;3.58;2.00;;;15.70;99.90;;;;;;5054932;28;20033;-80
2024/04/04 13:33:50;;;;;;;4.25;2.40;;;15.80;99.90;;;;;;5064850;28;20032;-80
2024/04/04 13:36:36;;;;;;;6.60;2.60;;;15.80;99.90;;;;;;5056729;28;20055;-75
2024/04/04 13:39:22;;;;;;;4.40;2.75;;;15.70;99.90;;;;;;5063388;28;20043;-76
2024/04/04 13:42:09;;;;;;;4.38;2.15;;;15.80;99.90;;;;;;5063271;28;20071;-80
2024/04/04 13:44:55;;;;;;;5.10;2.10;;;15.80;99.90;;;;;;5067690;28;20104;-77
2024/04/04 13:47:41;;;;;;;5.80;2.47;;;15.80;99.90;;;;;;5061823;28;20024;-81
2024/04/04 13:50:27;;;;;;;5.03;2.00;;;15.80;99.90;;;;;;5064516;28;20020;-81
2024/04/04 13:53:13;;;;;;;4.43;2.63;;;15.80;99.90;;;;;;5061626;28;20040;-81
2024/04/04 13:55:59;;;;;;;4.40;2.50;;;15.80;99.90;;;;;;5062070;28;20043;-80
2024/04/04 13:58:45;;;;;;;2.72;2.00;;;15.80;99.90;;;;;;5056173;28;20043;-80
2024/04/04 14:01:35;;;;;;;6.95;2.83;;;15.80;99.90;;;;;;5053907;28;20029;-81
2024/04/04 14:04:21;;;;;;;8.30;2.80;;;15.80;99.90;;;;;;5066837;28;20454;-80
2024/04/04 14:07:08;;;;;;;6.03;2.50;;;15.80;99.90;;;;;;5064803;28;20498;-80
2024/04/04 14:09:54;;;;;;;4.38;2.65;;;15.90;99.90;;;;;;5063474;28;20064;-81
2024/04/04 14:12:40;;;;;;;5.30;2.38;;;15.90;99.90;;;;;;5067381;28;20071;-80
2024/04/04 14:15:26;;;;;;;3.72;2.28;;;16.00;99.90;;;;;;5059067;28;20028;-81
2024/04/04 14:18:11;;;;;;;4.32;2.03;;;16.00;99.90;;;;;;5065289;28;20415;-81
2024/04/04 14:20:57;;;;;;;2.50;2.00;;;16.00;99.90;;;;;;5064933;28;21200;-80
2024/04/04 14:23:43;;;;;;;2.42;1.75;;;16.00;99.90;;;;;;5052766;28;20040;-80
2024/04/04 14:26:29;;;;;;;4.88;2.20;;;16.00;99.90;;;;;;5067632;28;20044;-81
2024/04/04 14:29:15;;;;;;;3.45;2.00;;;15.90;99.90;;;;;;5050856;28;20021;-80
2024/04/04 14:32:01;;;;;;;4.40;2.15;;;16.00;99.90;;;;;;5059982;28;20071;-80
2024/04/04 14:34:47;;;;;;;3.92;1.83;;;16.00;99.90;;;;;;5055537;28;20033;-80
2024/04/04 14:37:33;;;;;;;3.53;2.22;;;16.00;99.90;;;;;;5065916;28;20041;-81
2024/04/04 14:40:19;;;;;;;3.30;2.00;;;16.00;99.90;;;;;;5060416;28;20491;-80
2024/04/04 14:43:07;;;;;;;3.85;2.05;;;16.00;99.90;;;;;;5069474;28;20037;-80
2024/04/04 14:45:53;;;;;;;5.13;2.90;;;16.00;99.90;;;;;;5061292;28;20068;-81
2024/04/04 14:48:40;;;;;;;4.95;2.65;;;16.00;99.90;;;;;;5068229;28;20068;-81
2024/04/04 14:51:26;;;;;;;3.92;2.53;;;16.00;99.90;;;;;;5059711;28;20025;-80
2024/04/04 14:54:12;;;;;;;3.80;2.38;;;16.00;99.90;;;;;;5063825;28;20033;-76